Time;durP1;ratioP1;P1;durP2;ratioP2;P2;SDS_P1;SDS_P2;PMS_P1;PMS_P2;Temp;Humidity;BMP_temperature;BMP_pressure;BME280_temperature;BME280_humidity;BME280_pressure;Samples;Min_cycle;Max_cycle;Signal;HPM_P1;HPM_P2
2021/04/17 16:31:47;;;;;;;12.48;5.30;;;;;;;13.64;28.89;96339.59;5129404;27;20372;-69
2021/04/17 16:34:13;;;;;;;10.30;4.30;;;;;;;11.53;33.42;96346.88;5121161;28;20535;-71
2021/04/17 16:36:39;;;;;;;9.50;4.10;;;;;;;9.98;36.75;96338.81;5113964;27;20066;-70
2021/04/17 16:39:07;;;;;;;7.43;3.60;;;;;;;8.87;40.20;96345.47;5122028;27;20401;-70
2021/04/17 16:41:33;;;;;;;8.80;3.90;;;;;;;8.26;41.15;96348.19;5131876;27;20111;-71
2021/04/17 16:44:01;;;;;;;11.23;4.28;;;;;;;7.85;45.95;96352.19;5144788;22;20047;-67
2021/04/17 16:46:27;;;;;;;;;;;;;;;7.30;49.32;96365.06;5088218;28;20119;-67
2021/04/17 16:48:53;;;;;;;10.02;4.13;;;;;;;7.20;50.41;96364.72;5089214;28;20023;-67
2021/04/17 16:51:19;;;;;;;8.10;3.10;;;;;;;6.92;52.09;96367.69;5088737;28;20032;-66
2021/04/17 16:53:45;;;;;;;9.18;3.33;;;;;;;6.84;53.08;96366.13;5089438;28;20072;-68
2021/04/17 16:56:11;;;;;;;7.90;3.10;;;;;;;6.76;53.14;96363.75;5071514;28;20078;-68
2021/04/17 16:58:37;;;;;;;7.85;2.90;;;;;;;6.78;52.76;96375.63;5089414;28;20106;-68
2021/04/17 17:01:03;;;;;;;7.72;2.70;;;;;;;6.74;54.52;96369.19;5089076;28;20058;-65
2021/04/17 17:03:29;;;;;;;8.48;3.20;;;;;;;6.58;53.86;96378.28;5091168;28;20448;-66
2021/04/17 17:05:55;;;;;;;7.82;3.00;;;;;;;6.55;55.01;96370.84;5089268;28;20071;-67
2021/04/17 17:08:22;;;;;;;9.38;3.08;;;;;;;6.58;55.35;96373.06;5089501;28;20047;-70
2021/04/17 17:10:48;;;;;;;12.20;4.85;;;;;;;6.74;55.18;96381.47;5088087;28;20451;-67
2021/04/17 17:13:14;;;;;;;9.07;2.72;;;;;;;6.69;54.95;96376.03;5089086;28;20097;-65
2021/04/17 17:15:43;;;;;;;11.55;3.63;;;;;;;6.64;56.50;96387.13;5070593;28;20044;-66
2021/04/17 17:18:11;;;;;;;11.95;3.45;;;;;;;6.40;57.13;96383.34;5070384;28;20533;-66
2021/04/17 17:20:38;;;;;;;9.10;2.95;;;;;;;6.38;57.53;96382.75;5089142;28;20055;-67
2021/04/17 17:23:05;;;;;;;9.23;3.58;;;;;;;6.48;58.82;96385.75;5089076;28;20053;-68
2021/04/17 17:25:33;;;;;;;12.07;4.70;;;;;;;6.25;59.52;96391.44;5089678;28;20044;-77
2021/04/17 17:28:01;;;;;;;9.32;4.00;;;;;;;6.15;59.69;96380.59;5089253;28;20055;-69
2021/04/17 17:30:27;;;;;;;;;;;;;;;6.05;60.23;96391.44;5089574;28;20044;-67
2021/04/17 17:32:53;;;;;;;11.98;4.45;;;;;;;6.35;60.04;96391.03;5087857;28;19943;-77
2021/04/17 17:35:21;;;;;;;10.13;3.95;;;;;;;6.13;59.82;96394.84;5101666;28;20116;-77
2021/04/17 17:37:47;;;;;;;7.60;2.90;;;;;;;6.23;59.36;96395.25;5107496;28;20048;-76
2021/04/17 17:40:14;;;;;;;10.48;4.18;;;;;;;6.05;60.43;96398.50;5089209;28;20042;-77
2021/04/17 17:42:40;;;;;;;8.57;3.17;;;;;;;6.09;60.23;96397.09;5067711;28;20048;-76
2021/04/17 17:45:07;;;;;;;7.50;3.10;;;;;;;5.88;60.90;96397.28;5062039;28;20044;-77
2021/04/17 17:47:33;;;;;;;8.60;3.40;;;;;;;5.72;61.89;96403.69;5061328;28;20151;-79
2021/04/17 17:50:00;;;;;;;9.48;4.07;;;;;;;5.58;62.47;96410.69;5061993;28;20553;-77
2021/04/17 17:52:29;;;;;;;11.30;3.88;;;;;;;5.60;63.42;96406.09;5044591;28;20079;-77
2021/04/17 17:54:55;;;;;;;11.13;3.97;;;;;;;5.63;63.12;96410.09;5068076;28;20108;-77
2021/04/17 17:57:25;;;;;;;9.90;3.92;;;;;;;5.67;63.53;96411.31;5086176;28;20045;-78
2021/04/17 17:59:54;;;;;;;10.13;3.85;;;;;;;5.78;63.20;96414.13;5083689;28;20056;-77
2021/04/17 18:02:22;;;;;;;8.70;3.45;;;;;;;5.76;64.33;96418.75;5086734;28;20089;-78
2021/04/17 18:04:49;;;;;;;11.32;4.55;;;;;;;5.68;64.64;96423.34;5061795;28;20148;-77
2021/04/17 18:07:15;;;;;;;11.30;5.23;;;;;;;5.67;65.03;96422.56;5081148;28;20101;-78
2021/04/17 18:09:41;;;;;;;11.93;4.95;;;;;;;5.73;64.27;96423.56;5084269;28;20274;-78
2021/04/17 18:12:08;;;;;;;10.95;4.68;;;;;;;5.55;64.65;96428.56;5087180;28;20406;-78
2021/04/17 18:14:35;;;;;;;10.20;4.72;;;;;;;5.40;65.66;96434.75;5089042;28;20074;-78
2021/04/17 18:17:01;;;;;;;12.88;6.05;;;;;;;5.22;66.33;96429.28;5085867;28;20487;-79
2021/04/17 18:19:29;;;;;;;12.20;5.60;;;;;;;5.20;66.45;96424.25;5081074;28;20040;-77
2021/04/17 18:21:55;;;;;;;10.75;4.72;;;;;;;5.14;67.22;96427.66;5062553;28;20068;-78
2021/04/17 18:24:22;;;;;;;11.30;5.07;;;;;;;5.10;66.66;96431.63;5077456;28;20044;-77
2021/04/17 18:26:49;;;;;;;10.13;5.07;;;;;;;5.08;67.07;96427.63;5079454;28;20063;-78
2021/04/17 18:29:17;;;;;;;12.50;4.43;;;;;;;5.17;67.12;96426.47;5079677;28;20040;-77
2021/04/17 18:31:45;;;;;;;13.90;6.47;;;;;;;5.08;67.24;96430.25;5084005;28;20591;-79
2021/04/17 18:34:13;;;;;;;;;;;;;;;4.96;67.19;96436.03;5083667;28;20458;-78
2021/04/17 18:36:41;;;;;;;12.73;5.00;;;;;;;5.04;67.01;96431.63;5063096;28;19920;-78
2021/04/17 18:39:09;;;;;;;18.13;7.13;;;;;;;4.91;67.34;96437.59;5081045;28;20044;-79
2021/04/17 18:41:35;;;;;;;;;;;;;;;4.92;67.71;96444.41;5081042;28;20503;-78
2021/04/17 18:44:01;;;;;;;11.25;5.38;;;;;;;4.85;68.01;96439.19;5076856;28;19973;-76
2021/04/17 18:46:27;;;;;;;14.43;6.32;;;;;;;4.85;68.37;96438.38;5076026;28;20059;-77
2021/04/17 18:48:54;;;;;;;13.55;6.65;;;;;;;4.76;68.73;96449.97;5077142;28;20495;-76
2021/04/17 18:51:20;;;;;;;14.60;6.35;;;;;;;4.78;68.56;96453.97;5043352;28;20500;-77
2021/04/17 18:53:46;;;;;;;13.32;6.30;;;;;;;4.69;68.94;96455.13;5064567;28;20063;-77
2021/04/17 18:56:13;;;;;;;11.88;5.10;;;;;;;4.66;69.02;96451.09;5080290;28;20044;-77
2021/04/17 18:58:40;;;;;;;12.82;5.85;;;;;;;4.57;69.39;96452.25;5057700;28;20135;-76
2021/04/17 19:01:07;;;;;;;11.13;5.57;;;;;;;4.58;70.19;96458.28;5055874;28;20043;-77
2021/04/17 19:03:35;;;;;;;10.68;5.63;;;;;;;4.54;69.11;96464.88;5074655;28;20063;-77
2021/04/17 19:06:02;;;;;;;13.15;6.13;;;;;;;4.51;69.14;96465.25;5073992;28;20093;-77
2021/04/17 19:08:29;;;;;;;10.57;4.40;;;;;;;4.54;69.93;96462.25;5041577;28;20480;-77
2021/04/17 19:10:59;;;;;;;9.88;5.13;;;;;;;4.72;69.52;96465.16;5081994;28;20109;-77
2021/04/17 19:13:27;;;;;;;11.10;5.10;;;;;;;4.73;69.49;96478.03;5080124;28;20040;-78
2021/04/17 19:15:54;;;;;;;11.27;5.72;;;;;;;4.59;70.44;96476.31;5079818;28;20040;-77
2021/04/17 19:18:21;;;;;;;10.93;5.85;;;;;;;4.61;70.88;96470.91;5078768;28;20053;-77
2021/04/17 19:20:48;;;;;;;11.02;5.80;;;;;;;4.52;71.73;96464.25;5080447;28;20127;-77
2021/04/17 19:23:15;;;;;;;12.80;5.47;;;;;;;4.27;71.84;96477.72;5078297;28;20048;-77
2021/04/17 19:25:41;;;;;;;13.48;5.85;;;;;;;4.17;72.49;96472.81;5079356;28;20338;-78
2021/04/17 19:28:08;;;;;;;10.68;5.50;;;;;;;4.07;72.97;96474.16;5079982;28;20044;-77
2021/04/17 19:30:34;;;;;;;12.88;5.68;;;;;;;4.02;73.55;96479.09;5083403;28;20036;-77
2021/04/17 19:33:01;;;;;;;12.88;5.70;;;;;;;3.93;72.74;96476.66;5079686;28;20048;-77
2021/04/17 19:35:30;;;;;;;10.25;5.28;;;;;;;3.84;72.55;96476.97;5079968;28;20085;-77
2021/04/17 19:37:57;;;;;;;10.18;5.10;;;;;;;3.88;72.19;96479.00;5049808;28;20044;-76
2021/04/17 19:40:25;;;;;;;10.45;5.05;;;;;;;3.89;72.56;96483.22;5066367;28;20033;-78
2021/04/17 19:42:54;;;;;;;10.00;4.75;;;;;;;3.90;73.16;96474.41;5081023;28;20041;-78
2021/04/17 19:45:23;;;;;;;10.73;4.53;;;;;;;3.89;72.43;96480.59;5063288;28;20416;-78
2021/04/17 19:47:50;;;;;;;12.73;5.45;;;;;;;3.87;71.68;96472.16;5078275;28;20525;-77
2021/04/17 19:50:18;;;;;;;11.50;5.22;;;;;;;3.81;71.99;96472.91;5061122;28;20048;-76
2021/04/17 19:52:44;;;;;;;12.98;5.65;;;;;;;3.77;72.14;96476.91;5060823;28;20036;-77
2021/04/17 19:55:12;;;;;;;13.73;5.13;;;;;;;3.76;73.09;96475.28;5061436;28;20127;-78
2021/04/17 19:57:41;;;;;;;11.75;5.75;;;;;;;3.81;72.24;96477.31;5078993;28;20488;-78
2021/04/17 20:00:09;;;;;;;12.65;5.40;;;;;;;3.83;72.23;96476.16;5079713;28;20036;-78
2021/04/17 20:02:36;;;;;;;10.35;4.90;;;;;;;3.73;72.33;96475.66;5062443;28;20081;-77
2021/04/17 20:05:04;;;;;;;12.13;5.03;;;;;;;3.82;71.94;96474.56;5083869;28;20043;-78
2021/04/17 20:07:29;;;;;;;;;;;;;;;3.80;72.49;96476.50;5061995;28;20044;-77
2021/04/17 20:09:57;;;;;;;10.13;4.85;;;;;;;3.79;72.12;96480.13;5079006;28;19931;-77
2021/04/17 20:12:24;;;;;;;12.43;5.43;;;;;;;3.82;71.80;96479.75;5060182;28;20078;-77
2021/04/17 20:14:51;;;;;;;11.05;5.60;;;;;;;3.77;72.14;96482.09;5060878;28;20037;-77
2021/04/17 20:17:18;;;;;;;14.10;6.82;;;;;;;3.75;72.17;96478.06;5077988;28;20115;-79
2021/04/17 20:19:44;;;;;;;10.02;4.70;;;;;;;3.74;73.02;96476.47;5061670;28;20045;-78
2021/04/17 20:22:10;;;;;;;13.10;5.60;;;;;;;3.77;73.08;96474.31;5062168;28;20071;-78
2021/04/17 20:24:38;;;;;;;11.90;5.35;;;;;;;3.86;72.79;96475.75;5078737;28;20496;-77
2021/04/17 20:27:05;;;;;;;11.77;4.93;;;;;;;3.80;72.37;96468.72;5077546;28;20115;-77
2021/04/17 20:29:35;;;;;;;11.27;5.97;;;;;;;3.81;72.69;96472.91;5059614;28;20158;-78
2021/04/17 20:32:05;;;;;;;12.13;6.22;;;;;;;3.84;72.42;96472.56;5061842;28;20411;-77
2021/04/17 20:34:31;;;;;;;11.63;5.30;;;;;;;3.81;72.20;96469.50;5063250;28;20067;-79
2021/04/17 20:36:59;;;;;;;12.88;5.57;;;;;;;3.83;72.74;96465.75;5084644;28;20044;-77
2021/04/17 20:39:25;;;;;;;;;;;;;;;3.78;73.12;96473.31;5066950;28;20048;-77
2021/04/17 20:41:51;;;;;;;12.40;6.10;;;;;;;3.79;72.99;96471.50;5064393;28;19982;-76
2021/04/17 20:44:17;;;;;;;11.88;5.82;;;;;;;3.89;72.83;96480.59;5084616;28;20503;-77
2021/04/17 20:46:46;;;;;;;12.40;5.65;;;;;;;4.02;72.09;96468.69;5084318;28;20059;-77
2021/04/17 20:49:14;;;;;;;12.65;6.18;;;;;;;4.14;72.40;96467.19;5067798;28;20079;-79
2021/04/17 20:51:46;;;;;;;13.02;6.72;;;;;;;3.88;73.32;96473.81;5066491;28;20047;-78
2021/04/17 20:54:13;;;;;;;13.45;6.40;;;;;;;4.01;73.20;96475.69;5085020;28;20067;-77
2021/04/17 20:56:40;;;;;;;12.15;6.53;;;;;;;4.11;73.05;96472.78;5065396;28;20052;-77
2021/04/17 20:59:06;;;;;;;13.32;7.15;;;;;;;4.04;73.09;96477.13;5083943;28;20115;-77
2021/04/17 21:01:33;;;;;;;14.38;6.25;;;;;;;4.14;72.88;96475.00;5065756;28;20051;-78
2021/04/17 21:04:01;;;;;;;13.52;6.47;;;;;;;4.19;72.59;96475.22;5085791;28;20037;-77
2021/04/17 21:06:31;;;;;;;12.13;7.07;;;;;;;3.86;73.86;96475.75;5084722;28;20056;-78
2021/04/17 21:08:57;;;;;;;13.90;7.15;;;;;;;3.91;74.52;96465.59;5082611;28;20045;-76
2021/04/17 21:11:23;;;;;;;14.40;6.95;;;;;;;3.94;74.26;96478.25;5060083;28;20090;-78
2021/04/17 21:13:49;;;;;;;14.02;6.95;;;;;;;3.89;74.50;96475.41;5076646;28;20036;-79
2021/04/17 21:16:15;;;;;;;13.52;7.20;;;;;;;3.85;74.76;96479.38;5076316;28;20051;-79
2021/04/17 21:18:42;;;;;;;14.32;7.70;;;;;;;3.71;75.42;96475.03;5081247;28;20056;-78
2021/04/17 21:21:08;;;;;;;13.80;7.63;;;;;;;3.68;75.97;96472.81;5080909;28;20036;-79
2021/04/17 21:23:35;;;;;;;18.35;7.97;;;;;;;3.64;75.94;96474.16;5081794;28;20067;-77
2021/04/17 21:26:02;;;;;;;14.50;7.55;;;;;;;3.67;76.97;96474.59;5079310;28;20044;-77
2021/04/17 21:28:28;;;;;;;14.18;7.53;;;;;;;3.60;77.00;96465.09;5084159;28;20064;-78
2021/04/17 21:30:57;;;;;;;14.15;7.55;;;;;;;3.57;77.22;96470.69;5082319;28;20070;-79
2021/04/17 21:33:26;;;;;;;15.85;7.60;;;;;;;3.48;76.88;96470.00;5063355;28;20044;-79
2021/04/17 21:35:56;;;;;;;14.35;7.13;;;;;;;3.43;76.97;96465.34;5064515;28;20060;-78
2021/04/17 21:38:22;;;;;;;13.35;6.68;;;;;;;3.38;76.92;96467.69;5066958;28;20108;-78
2021/04/17 21:40:49;;;;;;;12.73;6.72;;;;;;;3.31;77.23;96472.03;5076301;28;20544;-78
2021/04/17 21:43:16;;;;;;;15.47;7.57;;;;;;;3.46;77.20;96466.78;5080126;28;20040;-79
2021/04/17 21:45:42;;;;;;;13.70;7.43;;;;;;;3.33;77.48;96462.25;5066530;28;20530;-79
2021/04/17 21:48:10;;;;;;;15.30;6.95;;;;;;;3.27;77.59;96470.78;5082769;28;20378;-78
2021/04/17 21:50:37;;;;;;;16.35;7.85;;;;;;;3.32;76.96;96468.44;5083474;28;20064;-78
2021/04/17 21:53:03;;;;;;;14.63;7.22;;;;;;;3.20;77.54;96469.91;5060622;28;20052;-77
2021/04/17 21:55:31;;;;;;;12.95;6.20;;;;;;;3.42;77.24;96468.94;5077282;28;20041;-77
2021/04/17 21:57:58;;;;;;;13.15;6.13;;;;;;;3.31;75.97;96461.63;5061899;28;20422;-78
2021/04/17 22:00:32;;;;;;;16.02;7.45;;;;;;;3.26;76.50;96463.97;5080614;28;20106;-78
2021/04/17 22:03:02;;;;;;;12.43;6.15;;;;;;;3.30;76.28;96454.81;5078030;28;20048;-78
2021/04/17 22:05:31;;;;;;;11.75;6.18;;;;;;;3.42;75.00;96465.53;5077024;28;20043;-78
2021/04/17 22:07:56;;;;;;;13.23;6.78;;;;;;;3.37;74.63;96462.69;5080654;28;20052;-77
2021/04/17 22:10:24;;;;;;;14.32;6.05;;;;;;;3.35;75.32;96460.28;5084992;28;20052;-77
2021/04/17 22:12:51;;;;;;;12.93;6.28;;;;;;;3.38;75.06;96462.50;5083115;28;20472;-77
2021/04/17 22:15:18;;;;;;;13.93;6.70;;;;;;;3.40;75.26;96451.94;5080229;28;20047;-78
2021/04/17 22:17:43;;;;;;;11.95;5.95;;;;;;;3.46;74.93;96458.19;5080852;28;20067;-78
2021/04/17 22:20:10;;;;;;;12.13;6.60;;;;;;;3.43;74.89;96454.94;5080114;28;20037;-78
2021/04/17 22:22:36;;;;;;;12.27;6.03;;;;;;;3.55;73.52;96457.06;5063774;28;20112;-77
2021/04/17 22:25:03;;;;;;;12.15;5.57;;;;;;;3.72;73.49;96462.84;5083255;28;20339;-77
2021/04/17 22:27:29;;;;;;;11.98;6.07;;;;;;;3.71;73.02;96456.81;5082727;28;20052;-77
2021/04/17 22:29:54;;;;;;;13.15;6.20;;;;;;;3.75;73.70;96452.06;5084680;28;20155;-77
2021/04/17 22:32:21;;;;;;;12.00;5.40;;;;;;;3.74;73.44;96458.25;5064068;28;20051;-77
2021/04/17 22:34:47;;;;;;;12.63;6.28;;;;;;;3.78;72.75;96444.69;5081758;28;20415;-77
2021/04/17 22:37:12;;;;;;;14.23;6.10;;;;;;;3.74;72.82;96451.25;5062384;28;20036;-76
2021/04/17 22:39:38;;;;;;;13.80;6.18;;;;;;;3.65;72.61;96447.94;5081067;28;20056;-76
2021/04/17 22:42:06;;;;;;;13.02;5.80;;;;;;;3.53;73.35;96448.66;5079285;28;20059;-77
2021/04/17 22:44:32;;;;;;;11.85;6.00;;;;;;;3.52;73.53;96441.84;5068478;22;20100;-70
2021/04/17 22:46:57;;;;;;;12.90;6.50;;;;;;;3.49;73.84;96443.00;5078676;28;20272;-71
2021/04/17 22:49:24;;;;;;;14.45;6.65;;;;;;;3.49;73.28;96443.00;5076982;28;20158;-70
2021/04/17 22:51:49;;;;;;;13.98;6.65;;;;;;;3.47;73.38;96444.19;5060295;28;20112;-70
2021/04/17 22:54:15;;;;;;;13.60;6.72;;;;;;;3.45;73.09;96430.56;5072011;28;20067;-70
2021/04/17 22:56:43;;;;;;;14.07;6.70;;;;;;;3.39;73.10;96438.13;5109809;28;20039;-70
2021/04/17 22:59:09;;;;;;;14.65;6.47;;;;;;;3.33;73.54;96444.03;5081417;28;20039;-71
2021/04/17 23:01:37;;;;;;;13.55;6.80;;;;;;;3.29;73.55;96436.81;5095783;28;20039;-70
2021/04/17 23:04:02;;;;;;;12.43;6.28;;;;;;;3.26;74.12;96443.16;5079119;28;20502;-70
2021/04/17 23:06:29;;;;;;;13.20;6.75;;;;;;;3.24;73.91;96433.97;5098662;28;20103;-70
2021/04/17 23:08:55;;;;;;;16.20;6.90;;;;;;;3.21;74.32;96444.72;5094389;28;20558;-70
2021/04/17 23:11:20;;;;;;;12.32;6.85;;;;;;;3.21;74.52;96445.50;5093663;28;20050;-69
2021/04/17 23:13:46;;;;;;;13.18;7.03;;;;;;;3.29;74.47;96435.00;5094265;28;20044;-70
2021/04/17 23:16:12;;;;;;;12.73;6.00;;;;;;;3.42;73.86;96426.53;5094706;28;20070;-70
2021/04/17 23:18:37;;;;;;;13.35;6.53;;;;;;;3.40;73.22;96429.31;5102017;28;20044;-69
2021/04/17 23:21:04;;;;;;;13.25;5.75;;;;;;;3.26;74.03;96431.97;5104070;28;20398;-70
2021/04/17 23:23:34;;;;;;;15.88;6.88;;;;;;;3.22;73.99;96426.31;5077312;28;20040;-70
2021/04/17 23:26:00;;;;;;;12.65;6.43;;;;;;;3.30;74.43;96422.81;5093914;28;20046;-69
2021/04/17 23:28:25;;;;;;;12.63;6.38;;;;;;;3.20;74.76;96420.50;5094272;28;20418;-70
2021/04/17 23:30:51;;;;;;;14.05;6.85;;;;;;;3.12;74.89;96433.59;5104152;28;20104;-70
2021/04/17 23:33:17;;;;;;;11.93;6.28;;;;;;;3.10;74.64;96423.41;5098699;28;20040;-70
2021/04/17 23:35:42;;;;;;;12.25;6.00;;;;;;;3.08;74.75;96427.19;5093206;28;20445;-70
2021/04/17 23:38:08;;;;;;;12.13;6.07;;;;;;;3.02;75.27;96422.72;5094013;28;20487;-70
2021/04/17 23:40:35;;;;;;;14.07;7.00;;;;;;;2.95;75.51;96419.22;5093254;28;20433;-70
2021/04/17 23:43:00;;;;;;;11.60;6.38;;;;;;;2.84;75.83;96418.69;5093875;28;20143;-70
2021/04/17 23:45:26;;;;;;;12.05;5.70;;;;;;;3.00;75.28;96424.69;5093497;28;20043;-70
2021/04/17 23:47:52;;;;;;;12.70;6.72;;;;;;;2.96;75.42;96418.22;5093384;28;20040;-70
2021/04/17 23:50:18;;;;;;;11.90;6.90;;;;;;;2.88;75.70;96413.97;5093299;28;20042;-70
2021/04/17 23:52:44;;;;;;;14.95;6.20;;;;;;;2.81;75.82;96408.69;5093749;28;20044;-70
2021/04/17 23:55:11;;;;;;;12.95;6.45;;;;;;;3.02;75.65;96414.94;5074931;28;20086;-70
2021/04/17 23:57:37;;;;;;;13.02;5.78;;;;;;;3.00;75.67;96411.69;5093284;28;20467;-70
